• Join FlightAware (Why Join?)
  • Login
  • US Flag 
05:06PM EST


 

Airport Tracker/Info


-or-


 

Live Flight TrackerFlight Track Log ✈ HL-7611 ✈ 29-Oct-2013 ✈ VHHH / HKG - RKSI / ICN

Flight Track Log - Related Links

Times and Time Zones

All times are in EDT time to prevent confusion due to time zone crossing. See the HL-7611 flight status page for this flight to view local times or setup timezone preferences in your user account.

Time Position Orientation Groundspeed Altitude Reporting Facility
EDT Latitude Longitude Course Direction KTS MPH feet Rate Location/Type
01:08PM 22.2980 113.9040 78° East 92 106  Level FlightAware
01:08PM 22.3080 113.9340 70° East 158 182 700 1,080 Climbing FlightAware
01:09PM 22.3180 113.9650 71° East 198 228 1,500 2,040 Climbing FlightAware
01:10PM 22.3320 114.0110 72° East 223 257 3,500 2,820 Climbing FlightAware
01:10PM 22.3410 114.0420 73° East 232 267 5,000 2,880 Climbing FlightAware
01:11PM 22.3250 114.0710 121° Southeast 249 287 6,300 1,920 Climbing FlightAware
01:11PM 22.3100 114.0750 166° South 255 293 6,800 1,920 Climbing FlightAware
01:12PM 22.2530 114.0780 177° South 297 342 8,200 2,400 Climbing FlightAware
01:12PM 22.2180 114.0810 175° South 298 343 9,600 2,040 Climbing FlightAware
01:13PM 22.1690 114.0910 169° South 318 366 10,900 1,740 Climbing FlightAware
01:14PM 22.1230 114.1660 123° Southeast 384 442 11,900 1,560 Climbing FlightAware
01:14PM 22.1180 114.1760 118° Southeast 387 445 12,600 480 Climbing FlightAware
01:15PM 22.0830 114.2530 116° Southeast 387 445 12,600  Level FlightAware
01:15PM 22.0670 114.2880 116° Southeast 387 445 12,600  Level FlightAware
01:16PM 22.0430 114.3430 115° Southeast 387 445 12,600 1,440 Level FlightAware
01:19PM 22.2840 114.5021 31° Northeast  Level Estimated
01:20PM 22.3784 114.5646 31° Northeast  Level Estimated
01:20PM 21.8120 114.8310 31° Northeast 21,800  Level FlightAware
01:23PM 22.0914 115.0058 30° Northeast  Level Estimated
01:24PM 22.1872 115.0658 30° Northeast  Level Estimated
01:25PM 22.2829 115.1260 30° Northeast  Level Estimated
01:26PM 22.3786 115.1862 30° Northeast  Level Estimated
01:27PM 22.4743 115.2466 30° Northeast  Level Estimated
01:28PM 22.5700 115.3070 30° Northeast  Level Estimated
01:29PM 22.6656 115.3675 30° Northeast  Level Estimated
01:30PM 22.7613 115.4281 30° Northeast  Level Estimated
01:31PM 22.8569 115.4887 30° Northeast  Level Estimated
01:32PM 22.9525 115.5495 30° Northeast  Level Estimated
01:33PM 23.0480 115.6103 30° Northeast  Level Estimated
01:33PM 21.9540 116.9130 30° Northeast 501 577 39,000  Level FlightAware
01:34PM 23.1436 115.6712 30° Northeast  Level Estimated
01:34PM 21.9600 116.9930 85° East 501 577 39,000  Level FlightAware
01:34PM 21.9640 117.0730 87° East 502 578 39,000  Level FlightAware
01:35PM 21.9710 117.1790 86° East 502 578 39,000  Level FlightAware
01:36PM 21.9820 117.3460 86° East 505 581 39,000 60 Level FlightAware
01:37PM 22.0210 117.5230 77° East 509 586 39,200 480 Climbing FlightAware
01:38PM 22.0580 117.6140 66° East 508 585 39,900 960 Climbing FlightAware
01:38PM 22.1020 117.6930 59° Northeast 509 586 40,400 840 Climbing FlightAware
01:39PM 22.1360 117.7550 59° Northeast 509 586 40,800 360 Climbing FlightAware
01:40PM 22.2140 117.8920 58° Northeast 508 585 41,000 60 Climbing FlightAware
01:41PM 22.2600 117.9740 59° Northeast 507 583 41,000  Level FlightAware
01:41PM 22.3040 118.0520 59° Northeast 505 581 41,000  Level FlightAware
01:42PM 22.3540 118.1370 58° Northeast 505 581 41,000  Level FlightAware
01:43PM 22.4380 118.2770 57° Northeast 504 580 41,000  Level FlightAware
01:43PM 22.4940 118.3300 41° Northeast 502 578 41,000  Level FlightAware
01:44PM 22.5510 118.3810 40° Northeast 502 578 41,000  Level FlightAware
01:45PM 22.6110 118.4370 41° Northeast 502 578 41,000  Level FlightAware
01:45PM 22.6970 118.5150 40° Northeast 504 580 41,000  Level FlightAware
01:46PM 22.7570 118.5710 41° Northeast 505 581 41,000  Level FlightAware
01:47PM 22.8570 118.6620 40° Northeast 507 583 41,000  Level FlightAware
01:47PM 22.9040 118.7050 40° Northeast 507 583 41,000  Level FlightAware
01:48PM 23.0190 118.8110 40° Northeast 510 587 41,000  Level FlightAware
01:49PM 23.0750 118.8630 41° Northeast 510 587 41,000  Level FlightAware
01:50PM 23.1510 118.9340 41° Northeast 509 586 41,000  Level FlightAware
01:50PM 23.2210 118.9990 40° Northeast 510 587 41,000  Level FlightAware
01:51PM 23.3310 119.1010 40° Northeast 512 589 41,000  Level FlightAware
01:52PM 23.3870 119.1530 40° Northeast 513 590 41,000  Level FlightAware
01:52PM 23.4440 119.2060 40° Northeast 514 592 41,000  Level FlightAware
01:53PM 23.4980 119.2550 40° Northeast 515 593 41,000  Level FlightAware
01:53PM 23.5580 119.3120 41° Northeast 516 594 41,000  Level FlightAware
01:54PM 23.6080 119.3590 41° Northeast 518 596 41,000  Level FlightAware
01:55PM 23.6740 119.4210 41° Northeast 518 596 41,000  Level FlightAware
01:55PM 23.7410 119.4830 40° Northeast 516 594 41,000  Level FlightAware
01:56PM 23.8150 119.5530 41° Northeast 516 594 41,000  Level FlightAware
01:56PM 23.8710 119.6050 40° Northeast 516 594 41,000  Level FlightAware
01:57PM 23.9180 119.6490 41° Northeast 516 594 41,000  Level FlightAware
01:57PM 24.0020 119.7280 41° Northeast 517 595 41,000  Level FlightAware
01:59PM 24.1300 119.8490 41° Northeast 518 596 41,000  Level FlightAware
01:59PM 24.1870 119.9030 41° Northeast 520 598 41,000  Level FlightAware
02:00PM 24.2830 119.9940 41° Northeast 520 598 41,000  Level FlightAware
02:01PM 24.3660 120.0720 41° Northeast 520 598 41,000  Level FlightAware
02:01PM 24.4060 120.1100 41° Northeast 519 597 41,000  Level FlightAware
02:02PM 24.4940 120.1940 41° Northeast 520 598 41,000  Level FlightAware
02:03PM 24.5510 120.2490 41° Northeast 520 598 41,000  Level FlightAware
02:03PM 24.6080 120.3030 41° Northeast 520 598 41,000  Level FlightAware
02:04PM 24.7200 120.4100 41° Northeast 524 603 41,000  Level FlightAware
02:05PM 24.8010 120.4870 41° Northeast 523 602 41,000  Level FlightAware
02:05PM 24.8620 120.5460 41° Northeast 523 602 41,000  Level FlightAware
02:06PM 24.9270 120.6080 41° Northeast 524 603 41,000  Level FlightAware
02:07PM 25.0460 120.7230 41° Northeast 526 605 41,000  Level FlightAware
02:08PM 25.1330 120.8060 41° Northeast 527 606 41,000  Level FlightAware
02:09PM 25.2390 120.9090 41° Northeast 528 608 41,000  Level FlightAware
02:09PM 25.3030 120.9710 41° Northeast 530 610 41,000  Level FlightAware
02:10PM 25.4180 121.0830 41° Northeast 531 611 41,000  Level FlightAware
02:11PM 25.5010 121.1640 41° Northeast 529 609 41,000  Level FlightAware
02:12PM 25.5730 121.2340 41° Northeast 529 609 41,000  Level FlightAware
02:12PM 25.6350 121.2940 41° Northeast 528 608 41,000  Level FlightAware
02:13PM 25.6860 121.3440 41° Northeast 527 606 41,000  Level FlightAware
02:13PM 25.7600 121.4160 41° Northeast 529 609 41,000  Level FlightAware
02:14PM 25.8330 121.4880 42° Northeast 531 611 41,000  Level FlightAware
02:15PM 25.8840 121.5390 42° Northeast 529 609 41,000  Level FlightAware
02:15PM 25.9390 121.5910 40° Northeast 529 609 41,000  Level FlightAware
02:16PM 26.0040 121.6560 42° Northeast 531 611 41,000  Level FlightAware
02:16PM 26.0630 121.7140 41° Northeast 533 613 41,000  Level FlightAware
02:17PM 26.1620 121.8110 41° Northeast 533 613 41,000  Level FlightAware
02:18PM 26.2360 121.8860 42° Northeast 532 612 41,000  Level FlightAware
02:19PM 26.3340 121.9810 41° Northeast 532 612 41,000  Level FlightAware
02:19PM 26.3930 122.0370 40° Northeast 532 612 41,000  Level FlightAware
02:20PM 26.4460 122.0900 42° Northeast 532 612 41,000  Level FlightAware
02:21PM 26.5030 122.1450 41° Northeast 532 612 41,000  Level FlightAware
02:21PM 26.5620 122.2020 41° Northeast 532 612 41,000  Level FlightAware
02:22PM 26.6180 122.2570 41° Northeast 532 612 41,000  Level FlightAware
02:22PM 26.6750 122.3120 41° Northeast 532 612 41,000  Level FlightAware
02:23PM 26.7130 122.3490 41° Northeast 532 612 41,000  Level FlightAware
02:24PM 26.8090 122.4430 41° Northeast 532 612 41,000  Level FlightAware
02:24PM 26.8490 122.4810 40° Northeast 532 612 41,000  Level FlightAware
02:25PM 26.9630 122.5920 41° Northeast 532 612 41,000  Level FlightAware
02:26PM 27.0570 122.6840 41° Northeast 532 612 41,000  Level FlightAware
02:27PM 27.1350 122.7600 41° Northeast 532 612 41,000  Level FlightAware
02:28PM 27.1720 122.7970 42° Northeast 532 612 41,000  Level FlightAware
02:31PM 27.5028 122.9021 16° North  Level Estimated
02:32PM 27.6168 122.9385 16° North  Level Estimated
02:33PM 27.7309 122.9749 16° North  Level Estimated
02:34PM 27.8449 123.0115 16° North  Level Estimated
02:35PM 27.9589 123.0481 16° North  Level Estimated
02:36PM 28.0729 123.0848 16° North  Level Estimated
02:37PM 28.1869 123.1215 16° North  Level Estimated
02:38PM 28.3008 123.1584 16° North  Level Estimated
02:39PM 28.4148 123.1953 16° North  Level Estimated
02:40PM 28.5288 123.2323 16° North  Level Estimated
02:41PM 28.6427 123.2694 16° North  Level Estimated
02:42PM 28.7567 123.3066 16° North  Level Estimated
02:43PM 28.8706 123.3438 16° North  Level Estimated
02:44PM 28.9845 123.3812 16° North  Level Estimated
02:45PM 29.0984 123.4186 16° North  Level Estimated
02:46PM 29.2123 123.4561 16° North  Level Estimated
02:47PM 29.3262 123.4937 16° North  Level Estimated
02:48PM 29.4401 123.5313 16° North  Level Estimated
02:49PM 29.5540 123.5691 16° North  Level Estimated
02:50PM 29.6678 123.6069 16° North  Level Estimated
02:51PM 29.7817 123.6448 16° North  Level Estimated
02:52PM 29.8955 123.6828 16° North  Level Estimated
02:53PM 30.0093 123.7209 16° North  Level Estimated
02:54PM 30.1232 123.7591 16° North  Level Estimated
02:55PM 30.2370 123.7974 16° North  Level Estimated
02:56PM 30.3508 123.8357 16° North  Level Estimated
02:57PM 30.4646 123.8742 16° North  Level Estimated
02:58PM 30.5783 123.9127 16° North  Level Estimated
02:59PM 30.6921 123.9513 16° North  Level Estimated
03:00PM 30.8058 123.9900 16° North  Level Estimated
03:01PM 30.9196 124.0288 16° North  Level Estimated
03:02PM 31.0333 124.0677 16° North  Level Estimated
03:03PM 31.1470 124.1067 16° North  Level Estimated
03:04PM 31.2607 124.1458 16° North  Level Estimated
03:05PM 31.3744 124.1850 16° North  Level Estimated
03:06PM 31.4881 124.2243 16° North  Level Estimated
03:07PM 31.6017 124.2637 16° North  Level Estimated
03:08PM 31.7154 124.3031 16° North  Level Estimated
03:09PM 31.8290 124.3427 16° North  Level Estimated
03:10PM 31.9427 124.3823 16° North  Level Estimated
03:11PM 32.0563 124.4221 17° North  Level Estimated
03:12PM 32.1699 124.4620 17° North  Level Estimated
03:12PM 33.1000 126.5020 17° North 513 590 41,000  Level FlightAware
03:13PM 32.2835 124.5019 17° North  Level Estimated
03:13PM 33.1930 126.5420 20° North 513 590 41,000  Level FlightAware
03:14PM 33.2610 126.5720 20° North 513 590 41,000  Level FlightAware
03:15PM 33.3980 126.6310 20° North 513 590 41,000  Level FlightAware
03:15PM 33.4450 126.6520 20° North 513 590 41,000  Level FlightAware
03:16PM 33.5990 126.7010 15° North 507 583 41,000  Level FlightAware
03:16PM 33.6720 126.7150 North 507 583 41,000  Level FlightAware
03:17PM 33.7430 126.7280 North 507 583 41,000  Level FlightAware
03:18PM 33.8370 126.7280 360° North 498 573 41,000  Level FlightAware
03:18PM 33.8830 126.7330 North 498 573 41,000  Level FlightAware
03:19PM 33.9800 126.7430 North 498 573 41,000  Level FlightAware
03:20PM 34.0740 126.7530 North 498 573 41,000  Level FlightAware
03:20PM 34.1440 126.7610 North 498 573 41,000  Level FlightAware
03:21PM 34.2140 126.7680 North 498 573 41,000  Level FlightAware
03:21PM 34.2850 126.7750 North 498 573 41,000  Level FlightAware
03:22PM 34.4040 126.7880 North 498 573 41,000  Level FlightAware
03:23PM 34.4740 126.7950 North 498 573 41,000  Level FlightAware
03:24PM 34.5460 126.8030 North 498 573 41,000  Level FlightAware
03:24PM 34.5950 126.8080 North 498 573 41,000  Level FlightAware
03:25PM 34.6650 126.8160 North 498 573 41,000  Level FlightAware
03:25PM 34.7120 126.8210 North 498 573 41,000  Level FlightAware
03:26PM 34.7820 126.8280 North 498 573 41,000  Level FlightAware
03:26PM 34.8720 126.8380 North 498 573 41,000  Level FlightAware
03:27PM 34.9190 126.8430 North 498 573 41,000  Level FlightAware
03:27PM 34.9890 126.8500 North 498 573 41,000  Level FlightAware
03:28PM 35.0320 126.8550 North 498 573 41,000 -2,100 Level FlightAware
03:31PM 35.3629 126.8015 352° North  Level Estimated
03:32PM 35.4804 126.7824 352° North  Level Estimated
03:33PM 35.5979 126.7633 352° North  Level Estimated
03:33PM 36.0450 126.9660 352° North 464 534 28,500  Level FlightAware
03:34PM 35.7154 126.7441 352° North  Level Estimated
03:34PM 36.0760 126.9700 North 449 517 28,100  Level FlightAware
03:35PM 36.1780 126.9810 North 438 504 26,600 -1,680 Descending FlightAware
03:35PM 36.2710 126.9910 North 420 483 25,500 -1,440 Descending FlightAware
03:36PM 36.3480 127.0000 North 405 466 24,600 -1,380 Descending FlightAware
03:37PM 36.4140 127.0040 North 390 449 23,800 -1,320 Descending FlightAware
03:38PM 36.5230 126.9990 358° North 384 442 22,500 -1,320 Descending FlightAware
03:38PM 36.5770 126.9970 358° North 390 449 21,900 -1,320 Descending FlightAware
03:39PM 36.6860 126.9930 358° North 383 441 20,600 -1,320 Descending FlightAware
03:39PM 36.7170 126.9910 357° North 376 433 20,200 -360 Descending FlightAware
03:40PM 36.7890 126.9750 350° North 376 433 20,200  Level FlightAware
03:41PM 36.8400 126.9640 350° North 376 433 20,200  Level FlightAware
03:41PM 36.8920 126.9520 350° North 376 433 20,200  Level FlightAware
03:43PM 36.9980 126.9290 350° North 376 433 20,200  Level FlightAware
03:43PM 37.0510 126.9170 350° North 376 433 20,200 -4,380 Level FlightAware
03:44PM 37.0370 126.5390 267° West 354 407 12,200 -4,620 Descending FlightAware
03:45PM 37.0760 126.4770 308° West 354 407 11,400 -1,080 Descending FlightAware
03:46PM 37.1140 126.4390 321° Northwest 306 352 11,000 -660 Descending FlightAware
03:46PM 37.1510 126.3990 319° Northwest 283 326 10,700 -600 Descending FlightAware
03:47PM 37.1860 126.3620 320° Northwest 273 314 10,300 -480 Descending FlightAware
03:47PM 37.2150 126.3300 319° Northwest 271 312 10,200 -1,020 Descending FlightAware
03:48PM 37.2250 126.3210 324° Northwest 260 299 9,600 -660 Descending FlightAware
03:48PM 37.2630 126.2790 319° Northwest 260 299 9,600  Level FlightAware
03:49PM 37.2820 126.2580 319° Northwest 260 299 9,600 -3,000 Level FlightAware
03:49PM 37.3500 126.2640 North 288 331 7,100 -3,360 Descending FlightAware
03:50PM 37.3800 126.2520 342° North 275 316 6,700 -480 Descending FlightAware
03:50PM 37.4050 126.2410 341° North 275 316 6,700 -720 Level FlightAware
03:51PM 37.4630 126.2170 342° North 204 235 5,800 -720 Descending FlightAware
03:51PM 37.4830 126.2080 340° North 204 235 5,800 -840 Level FlightAware
03:52PM 37.5330 126.1900 344° North 191 220 4,800 -840 Descending FlightAware
03:53PM 37.5520 126.1890 358° North 191 220 4,800  Level FlightAware
03:56PM 37.4691 126.4505 112° Southeast  Level Estimated
03:57PM 37.4691 126.4505 335° Northwest  Level Estimated
03:58PM 37.4691 126.4505 335° Northwest  Level Estimated
03:59PM 37.4691 126.4505 335° Northwest  Level Estimated
04:00PM 37.4691 126.4505 335° Northwest  Level Estimated
04:01PM 37.4691 126.4505 335° Northwest  Level Estimated
04:02PM 37.4691 126.4505 335° Northwest  Level Estimated